createdAt,value
2016-03-22T00:00:28.892Z,16.86
2016-03-22T00:01:28.957Z,16.87
2016-03-22T00:02:29.038Z,16.89
2016-03-22T00:03:29.057Z,16.84
2016-03-22T00:04:29.090Z,16.87
2016-03-22T00:05:29.186Z,16.87
2016-03-22T00:06:29.221Z,16.87
2016-03-22T00:07:29.255Z,16.79
2016-03-22T00:08:29.335Z,16.93
2016-03-22T00:09:29.385Z,16.84
2016-03-22T00:10:29.419Z,16.91
2016-03-22T00:11:29.469Z,16.9
2016-03-22T00:12:29.503Z,16.86
2016-03-22T00:13:29.614Z,16.87
2016-03-22T00:14:29.632Z,16.87
2016-03-22T00:15:29.667Z,16.84
2016-03-22T00:16:29.747Z,16.87
2016-03-22T00:17:29.796Z,16.84
2016-03-22T00:18:29.832Z,16.86
2016-03-22T00:19:29.896Z,16.86
2016-03-22T00:20:29.962Z,16.83
2016-03-22T00:21:29.980Z,16.86
2016-03-22T00:22:30.045Z,16.78
2016-03-22T00:23:30.095Z,16.81
2016-03-22T00:24:30.144Z,16.87
2016-03-22T00:25:30.193Z,16.83
2016-03-22T00:26:30.243Z,16.84
2016-03-22T00:27:30.277Z,16.83
2016-03-22T00:28:30.342Z,16.84
2016-03-22T00:29:30.376Z,16.87
2016-03-22T00:30:30.441Z,16.79
2016-03-22T00:31:30.491Z,16.79
2016-03-22T00:32:30.555Z,16.83
2016-03-22T00:33:30.574Z,16.83
2016-03-22T00:34:30.655Z,16.87
2016-03-22T00:35:30.704Z,16.81
2016-03-22T00:36:30.754Z,16.81
2016-03-22T00:37:30.802Z,16.79
2016-03-22T00:38:30.838Z,16.84
2016-03-22T00:39:30.902Z,16.81
2016-03-22T00:40:30.936Z,16.9
2016-03-22T00:41:30.235Z,16.83
2016-03-22T00:42:31.051Z,16.83
2016-03-22T00:43:31.085Z,16.84
2016-03-22T00:44:31.134Z,16.83
2016-03-22T00:45:31.215Z,16.83
2016-03-22T00:46:31.249Z,16.78
2016-03-22T00:47:31.284Z,16.78
2016-03-22T00:48:31.207Z,16.79
2016-03-22T00:49:31.398Z,16.84
2016-03-22T00:50:31.463Z,16.79
2016-03-22T00:51:31.512Z,16.78
2016-03-22T00:52:31.562Z,16.76
2016-03-22T00:53:31.611Z,16.78
2016-03-22T00:54:31.662Z,16.83
2016-03-22T00:55:31.695Z,16.76
2016-03-22T00:56:31.761Z,16.81
2016-03-22T00:57:31.825Z,16.76
2016-03-22T00:58:31.844Z,16.76
2016-03-22T00:59:31.893Z,16.83
2016-03-22T01:00:31.959Z,16.79
2016-03-22T01:01:31.992Z,16.79
2016-03-22T01:02:32.073Z,16.79
2016-03-22T01:03:32.108Z,16.76
2016-03-22T01:04:32.157Z,16.71
2016-03-22T01:05:32.222Z,16.79
2016-03-22T01:06:32.256Z,16.72
2016-03-22T01:07:32.305Z,16.76
2016-03-22T01:08:32.371Z,16.79
2016-03-22T01:09:32.405Z,16.81
2016-03-22T01:10:32.438Z,16.83
2016-03-22T01:11:32.519Z,16.79
2016-03-22T01:12:32.554Z,16.86
2016-03-22T01:13:32.587Z,16.81
2016-03-22T01:14:32.669Z,16.86
2016-03-22T01:15:32.718Z,16.81
2016-03-22T01:16:32.768Z,16.78
2016-03-22T01:17:32.801Z,16.79
2016-03-22T01:18:32.882Z,16.76
2016-03-22T01:19:32.915Z,16.79
2016-03-22T01:20:32.950Z,16.78
2016-03-22T01:21:33.015Z,16.76
2016-03-22T01:22:33.064Z,16.79
2016-03-22T01:23:33.099Z,16.74
2016-03-22T01:24:33.148Z,16.79
2016-03-22T01:25:33.244Z,16.78
2016-03-22T01:26:33.264Z,16.83
2016-03-22T01:27:33.312Z,16.81
2016-03-22T01:28:33.394Z,16.76
2016-03-22T01:29:33.427Z,16.78
2016-03-22T01:30:33.461Z,16.75
2016-03-22T01:31:33.527Z,16.83
2016-03-22T01:32:33.576Z,16.76
2016-03-22T01:33:33.610Z,16.76
2016-03-22T01:34:33.660Z,16.76
2016-03-22T01:35:33.741Z,16.74
2016-03-22T01:36:33.774Z,16.75
2016-03-22T01:37:33.808Z,16.81
2016-03-22T01:38:33.888Z,16.78
2016-03-22T01:39:33.939Z,16.74
2016-03-22T01:40:33.988Z,16.81
2016-03-22T01:41:34.038Z,16.75
2016-03-22T01:42:34.087Z,16.83
2016-03-22T01:43:34.137Z,16.75
2016-03-22T01:44:34.155Z,16.74
2016-03-22T01:45:34.220Z,16.76
2016-03-22T01:46:34.285Z,16.74
2016-03-22T01:47:34.319Z,16.83
2016-03-22T01:48:34.369Z,16.74
2016-03-22T01:49:34.434Z,16.78
2016-03-22T01:50:34.468Z,16.78
2016-03-22T01:51:34.518Z,16.75
2016-03-22T01:52:34.583Z,16.83
2016-03-22T01:53:34.648Z,16.76
2016-03-22T01:54:34.682Z,16.81
2016-03-22T01:55:34.731Z,16.84
2016-03-22T01:56:34.765Z,16.78
2016-03-22T01:57:34.843Z,16.75
2016-03-22T01:58:34.863Z,16.83
2016-03-22T01:59:34.900Z,16.78
2016-03-22T02:00:34.951Z,16.79
2016-03-22T02:01:34.987Z,16.78
2016-03-22T02:02:35.010Z,16.79
2016-03-22T02:03:35.070Z,16.74
2016-03-22T02:04:35.130Z,16.79
2016-03-22T02:05:35.144Z,16.71
2016-03-22T02:06:35.203Z,16.74
2016-03-22T02:07:35.234Z,16.76
2016-03-22T02:08:35.298Z,16.79
2016-03-22T02:09:35.345Z,16.79
2016-03-22T02:10:35.377Z,16.76
2016-03-22T02:11:35.426Z,16.74
2016-03-22T02:12:35.490Z,16.76
2016-03-22T02:13:35.538Z,16.75
2016-03-22T02:14:35.571Z,16.75
2016-03-22T02:15:35.636Z,16.78
2016-03-22T02:16:35.684Z,16.75
2016-03-22T02:17:35.734Z,16.79
2016-03-22T02:18:35.815Z,16.76
2016-03-22T02:19:35.817Z,16.75
2016-03-22T02:20:35.883Z,16.78
2016-03-22T02:21:35.948Z,16.76
2016-03-22T02:22:35.981Z,16.79
2016-03-22T02:23:36.047Z,16.69
2016-03-22T02:24:36.112Z,16.78
2016-03-22T02:25:36.146Z,16.76
2016-03-22T02:26:36.180Z,16.78
2016-03-22T02:27:36.277Z,16.83
2016-03-22T02:28:36.310Z,16.75
2016-03-22T02:29:36.344Z,16.79
2016-03-22T02:30:36.399Z,16.74
2016-03-22T02:31:36.448Z,16.78
2016-03-22T02:32:36.357Z,16.81
2016-03-22T02:33:36.563Z,16.76
2016-03-22T02:34:36.581Z,16.74
2016-03-22T02:35:36.647Z,16.79
2016-03-22T02:36:36.712Z,16.86
2016-03-22T02:37:36.745Z,16.84
2016-03-22T02:38:36.779Z,16.75
2016-03-22T02:39:36.860Z,16.75
2016-03-22T02:40:36.894Z,16.78
2016-03-22T02:41:36.945Z,16.76
2016-03-22T02:42:37.056Z,16.84
2016-03-22T02:43:37.058Z,16.76
2016-03-22T02:44:37.109Z,16.69
2016-03-22T02:45:37.142Z,16.75
2016-03-22T02:46:37.175Z,16.74
2016-03-22T02:47:37.241Z,16.76
2016-03-22T02:48:37.338Z,16.84
2016-03-22T02:49:37.372Z,16.83
2016-03-22T02:50:37.422Z,16.81
2016-03-22T02:51:37.471Z,16.71
2016-03-22T02:52:37.489Z,16.72
2016-03-22T02:53:37.570Z,16.69
2016-03-22T02:54:37.619Z,16.72
2016-03-22T02:55:37.653Z,16.79
2016-03-22T02:56:37.703Z,16.72
2016-03-22T02:57:37.753Z,16.71
2016-03-22T02:58:37.818Z,16.72
2016-03-22T02:59:37.852Z,16.68
2016-03-22T03:00:37.901Z,16.69
2016-03-22T03:01:38.013Z,16.74
2016-03-22T03:02:38.016Z,16.72
2016-03-22T03:03:38.049Z,16.69
2016-03-22T03:04:38.131Z,16.74
2016-03-22T03:05:38.165Z,16.72
2016-03-22T03:06:38.230Z,16.74
2016-03-22T03:07:38.264Z,16.72
2016-03-22T03:08:38.329Z,16.72
2016-03-22T03:09:38.457Z,16.66
2016-03-22T03:10:38.397Z,16.74
2016-03-22T03:11:38.478Z,16.72
2016-03-22T03:12:38.528Z,16.74
2016-03-22T03:13:38.545Z,16.65
2016-03-22T03:14:38.626Z,16.74
2016-03-22T03:15:38.692Z,16.72
2016-03-22T03:16:38.709Z,16.75
2016-03-22T03:17:38.776Z,16.71
2016-03-22T03:18:38.840Z,16.72
2016-03-22T03:19:38.858Z,16.75
2016-03-22T03:20:38.940Z,16.71
2016-03-22T03:21:38.989Z,16.69
2016-03-22T03:22:39.022Z,16.72
2016-03-22T03:23:39.057Z,16.75
2016-03-22T03:24:39.060Z,16.74
2016-03-22T03:25:39.202Z,16.69
2016-03-22T03:26:39.222Z,16.71
2016-03-22T03:27:39.255Z,16.75
2016-03-22T03:28:39.335Z,16.66
2016-03-22T03:29:39.370Z,16.68
2016-03-22T03:30:39.435Z,16.66
2016-03-22T03:31:39.500Z,16.75
2016-03-22T03:32:39.549Z,16.69
2016-03-22T03:33:39.584Z,16.74
2016-03-22T03:34:39.633Z,16.72
2016-03-22T03:35:39.668Z,16.74
2016-03-22T03:36:39.763Z,16.74
2016-03-22T03:37:39.798Z,16.78
2016-03-22T03:38:39.848Z,16.74
2016-03-22T03:39:39.772Z,16.74
2016-03-22T03:40:39.946Z,16.75
2016-03-22T03:41:39.980Z,16.69
2016-03-22T03:42:40.030Z,16.72
2016-03-22T03:43:40.095Z,16.72
2016-03-22T03:44:40.098Z,16.72
2016-03-22T03:45:40.178Z,16.74
2016-03-22T03:46:40.244Z,16.69
2016-03-22T03:47:40.278Z,16.72
2016-03-22T03:48:40.343Z,16.71
2016-03-22T03:49:40.377Z,16.75
2016-03-22T03:50:40.425Z,16.74
2016-03-22T03:51:40.523Z,16.71
2016-03-22T03:52:40.525Z,16.74
2016-03-22T03:53:40.403Z,16.65
2016-03-22T03:54:40.656Z,16.74
2016-03-22T03:55:40.721Z,16.66
2016-03-22T03:56:40.724Z,16.71
2016-03-22T03:57:40.789Z,16.69
2016-03-22T03:58:40.869Z,16.71
2016-03-22T03:59:40.888Z,16.79
2016-03-22T04:00:40.953Z,16.68
2016-03-22T04:01:40.987Z,16.69
2016-03-22T04:02:41.037Z,16.69
2016-03-22T04:03:41.086Z,16.66
2016-03-22T04:04:41.135Z,16.65
2016-03-22T04:05:41.201Z,16.72
2016-03-22T04:06:41.235Z,16.75
2016-03-22T04:07:41.285Z,16.69
2016-03-22T04:08:41.365Z,16.71
2016-03-22T04:09:41.415Z,16.68
2016-03-22T04:10:41.464Z,16.61
2016-03-22T04:11:41.498Z,16.69
2016-03-22T04:12:41.564Z,16.66
2016-03-22T04:13:41.598Z,16.65
2016-03-22T04:14:41.662Z,16.68
2016-03-22T04:15:41.681Z,16.61
2016-03-22T04:16:41.746Z,16.65
2016-03-22T04:17:41.795Z,16.65
2016-03-22T04:18:41.830Z,16.68
2016-03-22T04:19:41.895Z,16.69
2016-03-22T04:20:41.960Z,16.64
2016-03-22T04:21:41.979Z,16.71
2016-03-22T04:22:42.044Z,16.66
2016-03-22T04:23:42.093Z,16.74
2016-03-22T04:24:42.159Z,16.68
2016-03-22T04:25:42.192Z,16.66
2016-03-22T04:26:42.273Z,16.68
2016-03-22T04:27:42.291Z,16.71
2016-03-22T04:28:42.357Z,16.64
2016-03-22T04:29:41.641Z,16.75
2016-03-22T04:30:42.441Z,16.68
2016-03-22T04:31:42.505Z,16.68
2016-03-22T04:32:42.554Z,16.66
2016-03-22T04:33:42.605Z,16.66
2016-03-22T04:34:42.669Z,16.69
2016-03-22T04:35:42.719Z,16.65
2016-03-22T04:36:42.753Z,16.58
2016-03-22T04:37:42.834Z,16.64
2016-03-22T04:38:42.868Z,16.71
2016-03-22T04:39:42.918Z,16.75
2016-03-22T04:40:42.936Z,16.66
2016-03-22T04:41:43.001Z,16.68
2016-03-22T04:42:43.065Z,16.69
2016-03-22T04:43:43.101Z,16.66
2016-03-22T04:44:43.150Z,16.65
2016-03-22T04:45:43.198Z,16.65
2016-03-22T04:46:43.249Z,16.68
2016-03-22T04:47:43.298Z,16.65
2016-03-22T04:48:43.411Z,16.72
2016-03-22T04:49:43.414Z,16.69
2016-03-22T04:50:42.697Z,16.74
2016-03-22T04:51:43.528Z,16.75
2016-03-22T04:52:43.578Z,16.75
2016-03-22T04:53:43.595Z,16.66
2016-03-22T04:54:43.677Z,16.76
2016-03-22T04:55:43.725Z,16.68
2016-03-22T04:56:43.776Z,16.72
2016-03-22T04:57:43.810Z,16.72
2016-03-22T04:58:43.891Z,16.66
2016-03-22T04:59:43.924Z,16.69
2016-03-22T05:00:43.958Z,16.78
2016-03-22T05:01:44.024Z,16.78
2016-03-22T05:02:44.073Z,16.79
2016-03-22T05:03:44.122Z,16.76
2016-03-22T05:04:44.171Z,16.81
2016-03-22T05:05:44.207Z,16.76
2016-03-22T05:06:44.287Z,16.86
2016-03-22T05:07:44.321Z,16.79
2016-03-22T05:08:44.340Z,16.79
2016-03-22T05:09:44.420Z,16.78
2016-03-22T05:10:44.501Z,16.76
2016-03-22T05:11:44.504Z,16.78
2016-03-22T05:12:44.600Z,16.75
2016-03-22T05:13:44.634Z,16.79
2016-03-22T05:14:44.668Z,16.86
2016-03-22T05:15:44.748Z,16.78
2016-03-22T05:16:44.783Z,16.79
2016-03-22T05:17:44.832Z,16.81
2016-03-22T05:18:44.867Z,16.74
2016-03-22T05:19:44.197Z,16.74
2016-03-22T05:20:44.981Z,16.81
2016-03-22T05:21:45.046Z,16.78
2016-03-22T05:22:45.064Z,16.72
2016-03-22T05:23:45.145Z,16.76
2016-03-22T05:24:45.194Z,16.75
2016-03-22T05:25:45.213Z,16.69
2016-03-22T05:26:45.309Z,16.76
2016-03-22T05:27:45.344Z,16.83
2016-03-22T05:28:45.362Z,16.76
2016-03-22T05:29:45.411Z,16.76
2016-03-22T05:30:45.477Z,16.81
2016-03-22T05:31:45.510Z,16.84
2016-03-22T05:32:45.591Z,16.78
2016-03-22T05:33:45.625Z,16.76
2016-03-22T05:34:45.659Z,16.79
2016-03-22T05:35:45.741Z,16.74
2016-03-22T05:36:45.774Z,16.76
2016-03-22T05:37:45.848Z,16.74
2016-03-22T05:38:45.883Z,16.76
2016-03-22T05:39:45.922Z,16.75
2016-03-22T05:40:45.975Z,16.75
2016-03-22T05:41:46.025Z,16.71
2016-03-22T05:42:46.091Z,16.81
2016-03-22T05:43:45.953Z,16.78
2016-03-22T05:44:46.174Z,16.83
2016-03-22T05:45:46.208Z,16.71
2016-03-22T05:46:46.274Z,16.86
2016-03-22T05:47:46.322Z,16.79
2016-03-22T05:48:46.372Z,16.76
2016-03-22T05:49:46.407Z,16.78
2016-03-22T05:50:46.471Z,16.76
2016-03-22T05:51:46.506Z,16.74
2016-03-22T05:52:46.555Z,16.86
2016-03-22T05:53:46.621Z,16.76
2016-03-22T05:54:46.638Z,16.76
2016-03-22T05:55:46.704Z,16.76
2016-03-22T05:56:46.769Z,16.78
2016-03-22T05:57:46.834Z,16.78
2016-03-22T05:58:46.853Z,16.78
2016-03-22T05:59:46.934Z,16.81
2016-03-22T06:00:46.983Z,16.78
2016-03-22T06:01:47.017Z,16.81
2016-03-22T06:02:47.067Z,16.69
2016-03-22T06:03:47.132Z,16.71
2016-03-22T06:04:47.181Z,16.76
2016-03-22T06:05:47.215Z,16.86
2016-03-22T06:06:47.265Z,16.79
2016-03-22T06:07:47.330Z,16.74
2016-03-22T06:08:47.364Z,16.86
2016-03-22T06:09:47.429Z,16.78
2016-03-22T06:10:47.479Z,16.79
2016-03-22T06:11:47.544Z,16.79
2016-03-22T06:12:47.593Z,16.74
2016-03-22T06:13:47.628Z,16.78
2016-03-22T06:14:47.692Z,16.81
2016-03-22T06:15:47.742Z,16.74
2016-03-22T06:16:47.775Z,16.79
2016-03-22T06:17:47.825Z,16.76
2016-03-22T06:18:47.734Z,16.74
2016-03-22T06:19:47.924Z,16.75
2016-03-22T06:20:47.975Z,16.79
2016-03-22T06:21:48.039Z,16.74
2016-03-22T06:22:48.089Z,16.78
2016-03-22T06:23:48.138Z,16.75
2016-03-22T06:24:48.172Z,16.75
2016-03-22T06:25:48.238Z,16.83
2016-03-22T06:26:48.287Z,16.72
2016-03-22T06:27:48.352Z,16.75
2016-03-22T06:28:48.229Z,16.79
2016-03-22T06:29:48.468Z,16.74
2016-03-22T06:30:48.517Z,16.86
2016-03-22T06:31:48.551Z,16.81
2016-03-22T06:32:48.585Z,16.74
2016-03-22T06:33:48.650Z,16.79
2016-03-22T06:34:47.918Z,16.86
2016-03-22T06:35:48.748Z,16.78
2016-03-22T06:36:48.830Z,16.74
2016-03-22T06:37:48.832Z,16.81
2016-03-22T06:38:48.882Z,16.79
2016-03-22T06:39:48.947Z,16.78
2016-03-22T06:40:48.965Z,16.84
2016-03-22T06:41:49.031Z,16.81
2016-03-22T06:42:49.095Z,16.84
2016-03-22T06:43:49.146Z,16.75
2016-03-22T06:44:49.180Z,16.74
2016-03-22T06:45:49.261Z,16.76
2016-03-22T06:46:49.310Z,16.83
2016-03-22T06:47:49.375Z,16.78
2016-03-22T06:48:49.408Z,16.78
2016-03-22T06:49:49.427Z,16.81
2016-03-22T06:50:49.507Z,16.72
2016-03-22T06:51:49.573Z,16.74
2016-03-22T06:52:49.591Z,16.79
2016-03-22T06:53:49.672Z,16.76
2016-03-22T06:54:49.707Z,16.79
2016-03-22T06:55:49.740Z,16.76
2016-03-22T06:56:49.790Z,16.83
2016-03-22T06:57:49.854Z,16.83
2016-03-22T06:58:49.874Z,16.74
2016-03-22T06:59:49.938Z,16.79
2016-03-22T07:00:49.988Z,16.79
2016-03-22T07:01:50.053Z,16.74
2016-03-22T07:02:50.118Z,16.79
2016-03-22T07:03:50.152Z,16.83
2016-03-22T07:04:50.201Z,16.74
2016-03-22T07:05:50.268Z,16.78
2016-03-22T07:06:50.332Z,16.86
2016-03-22T07:07:50.356Z,16.81
2016-03-22T07:08:50.420Z,16.83
2016-03-22T07:09:50.439Z,16.74
2016-03-22T07:10:50.489Z,16.74
2016-03-22T07:11:50.569Z,16.74
2016-03-22T07:12:50.604Z,16.83
2016-03-22T07:13:50.669Z,16.79
2016-03-22T07:14:50.547Z,16.76
2016-03-22T07:15:50.752Z,16.75
2016-03-22T07:16:50.833Z,16.78
2016-03-22T07:17:50.836Z,16.81
2016-03-22T07:18:50.947Z,16.78
2016-03-22T07:19:50.966Z,16.75
2016-03-22T07:20:50.984Z,16.76
2016-03-22T07:21:51.049Z,16.76
2016-03-22T07:22:51.115Z,16.81
2016-03-22T07:23:51.179Z,16.72
2016-03-22T07:24:51.213Z,16.75
2016-03-22T07:25:51.279Z,16.69
2016-03-22T07:26:51.296Z,16.78
2016-03-22T07:27:51.393Z,16.79
2016-03-22T07:28:51.459Z,16.76
2016-03-22T07:29:51.446Z,16.71
2016-03-22T07:30:51.526Z,16.78
2016-03-22T07:31:51.576Z,16.84
2016-03-22T07:32:51.610Z,16.83
2016-03-22T07:33:51.690Z,16.76
2016-03-22T07:34:51.725Z,16.76
2016-03-22T07:35:51.759Z,16.79
2016-03-22T07:36:51.824Z,16.72
2016-03-22T07:37:51.873Z,16.75
2016-03-22T07:38:51.923Z,16.78
2016-03-22T07:39:51.957Z,16.83
2016-03-22T07:40:51.991Z,16.78
2016-03-22T07:41:52.087Z,16.78
2016-03-22T07:42:52.121Z,16.78
2016-03-22T07:43:52.156Z,16.79
2016-03-22T07:44:52.236Z,16.78
2016-03-22T07:45:52.270Z,16.76
2016-03-22T07:46:52.320Z,16.83
2016-03-22T07:47:52.385Z,16.79
2016-03-22T07:48:52.450Z,16.76
2016-03-22T07:49:52.468Z,16.72
2016-03-22T07:50:52.519Z,16.76
2016-03-22T07:51:52.552Z,16.72
2016-03-22T07:52:52.632Z,16.74
2016-03-22T07:53:52.682Z,16.75
2016-03-22T07:54:52.763Z,16.69
2016-03-22T07:55:52.781Z,16.74
2016-03-22T07:56:52.846Z,16.68
2016-03-22T07:57:52.880Z,16.74
2016-03-22T07:58:52.930Z,16.74
2016-03-22T07:59:53.354Z,16.74
2016-03-22T08:00:53.029Z,16.72
2016-03-22T08:01:53.063Z,16.72
2016-03-22T08:02:53.128Z,16.69
2016-03-22T08:03:53.162Z,16.79
2016-03-22T08:04:53.228Z,16.75
2016-03-22T08:05:53.261Z,16.76
2016-03-22T08:06:53.327Z,16.75
2016-03-22T08:07:53.423Z,16.76
2016-03-22T08:08:53.426Z,16.78
2016-03-22T08:09:53.475Z,16.76
2016-03-22T08:10:53.540Z,16.74
2016-03-22T08:11:53.590Z,16.76
2016-03-22T08:12:53.624Z,16.83
2016-03-22T08:13:53.689Z,16.74
2016-03-22T08:14:53.739Z,16.81
2016-03-22T08:15:53.772Z,16.76
2016-03-22T08:16:53.838Z,16.75
2016-03-22T08:17:53.888Z,16.81
2016-03-22T08:18:53.922Z,16.83
2016-03-22T08:19:54.002Z,16.81
2016-03-22T08:20:54.052Z,16.84
2016-03-22T08:21:54.069Z,16.79
2016-03-22T08:22:54.136Z,16.78
2016-03-22T08:23:54.216Z,16.79
2016-03-22T08:24:54.219Z,16.81
2016-03-22T08:25:54.284Z,16.76
2016-03-22T08:26:54.349Z,16.79
2016-03-22T08:27:54.243Z,16.81
2016-03-22T08:28:54.418Z,16.79
2016-03-22T08:29:54.499Z,16.75
2016-03-22T08:30:54.532Z,16.79
2016-03-22T08:31:54.596Z,16.78
2016-03-22T08:32:54.631Z,16.74
2016-03-22T08:33:54.696Z,16.83
2016-03-22T08:34:54.745Z,16.76
2016-03-22T08:35:54.795Z,16.75
2016-03-22T08:36:54.844Z,16.83
2016-03-22T08:37:54.895Z,16.81
2016-03-22T08:38:54.959Z,16.75
2016-03-22T08:39:54.993Z,16.79
2016-03-22T08:40:55.059Z,16.84
2016-03-22T08:41:55.108Z,16.79
2016-03-22T08:42:55.126Z,16.87
2016-03-22T08:43:55.208Z,16.84
2016-03-22T08:44:55.242Z,16.87
2016-03-22T08:45:55.306Z,16.83
2016-03-22T08:46:55.371Z,16.87
2016-03-22T08:47:55.390Z,16.83
2016-03-22T08:48:55.455Z,16.86
2016-03-22T08:49:55.520Z,16.91
2016-03-22T08:50:55.539Z,16.87
2016-03-22T08:51:55.588Z,16.86
2016-03-22T08:52:55.669Z,16.83
2016-03-22T08:53:55.687Z,16.9
2016-03-22T08:54:55.738Z,16.91
2016-03-22T08:55:55.802Z,16.83
2016-03-22T08:56:55.882Z,16.86
2016-03-22T08:57:55.933Z,16.87
2016-03-22T08:58:55.951Z,16.86
2016-03-22T08:59:56.016Z,16.83
2016-03-22T09:00:56.082Z,16.87
2016-03-22T09:01:56.116Z,16.9
2016-03-22T09:02:56.165Z,16.83
2016-03-22T09:03:56.229Z,16.87
2016-03-22T09:04:56.248Z,16.89
2016-03-22T09:05:56.298Z,16.91
2016-03-22T09:06:56.392Z,16.87
2016-03-22T09:07:56.409Z,16.86
2016-03-22T09:08:56.475Z,16.87
2016-03-22T09:09:56.509Z,16.84
2016-03-22T09:10:56.574Z,16.84
2016-03-22T09:11:56.623Z,16.83
2016-03-22T09:12:56.642Z,16.87
2016-03-22T09:13:56.708Z,16.78
2016-03-22T09:14:56.772Z,16.9
2016-03-22T09:15:56.822Z,16.81
2016-03-22T09:16:56.855Z,16.83
2016-03-22T09:17:56.952Z,16.89
2016-03-22T09:18:56.970Z,16.86
2016-03-22T09:19:57.005Z,16.91
2016-03-22T09:20:57.085Z,16.83
2016-03-22T09:21:57.103Z,16.79
2016-03-22T09:22:57.168Z,16.86
2016-03-22T09:23:57.202Z,16.84
2016-03-22T09:24:57.283Z,16.86
2016-03-22T09:25:57.332Z,16.84
2016-03-22T09:26:57.383Z,16.83
2016-03-22T09:27:57.432Z,16.94
2016-03-22T09:28:57.481Z,16.91
2016-03-22T09:29:57.531Z,16.84
2016-03-22T09:30:57.565Z,16.83
2016-03-22T09:31:57.631Z,16.89
2016-03-22T09:32:57.695Z,16.87
2016-03-22T09:33:57.714Z,16.84
2016-03-22T09:34:57.810Z,16.94
2016-03-22T09:35:57.812Z,16.86
2016-03-22T09:36:57.895Z,16.93
2016-03-22T09:37:57.943Z,16.91
2016-03-22T09:38:57.961Z,16.9
2016-03-22T09:39:58.042Z,16.84
2016-03-22T09:40:58.092Z,16.83
2016-03-22T09:41:58.111Z,16.93
2016-03-22T09:42:58.175Z,16.96
2016-03-22T09:43:58.225Z,16.94
2016-03-22T09:44:58.290Z,16.94
2016-03-22T09:45:58.325Z,16.96
2016-03-22T09:46:58.389Z,16.93
2016-03-22T09:47:58.455Z,16.97
2016-03-22T09:48:58.488Z,16.96
2016-03-22T09:49:58.538Z,16.94
2016-03-22T09:50:58.588Z,16.99
2016-03-22T09:51:58.496Z,16.9
2016-03-22T09:52:58.671Z,16.9
2016-03-22T09:53:58.721Z,16.91
2016-03-22T09:54:58.770Z,16.96
2016-03-22T09:55:58.821Z,16.84
2016-03-22T09:56:58.869Z,16.94
2016-03-22T09:57:58.951Z,16.96
2016-03-22T09:58:58.984Z,16.94
2016-03-22T09:59:59.065Z,16.93
2016-03-22T10:00:59.099Z,17.01
2016-03-22T10:01:59.148Z,16.87
2016-03-22T10:02:59.182Z,16.96
2016-03-22T10:03:59.232Z,16.9
2016-03-22T10:04:59.297Z,16.99
2016-03-22T10:05:59.348Z,16.9
2016-03-22T10:06:59.381Z,16.93
2016-03-22T10:07:59.461Z,16.94
2016-03-22T10:08:59.496Z,16.9
2016-03-22T10:09:59.529Z,16.93
2016-03-22T10:10:59.611Z,16.96
2016-03-22T10:11:59.659Z,16.87
2016-03-22T10:12:59.741Z,16.9
2016-03-22T10:13:59.759Z,16.99
2016-03-22T10:14:59.809Z,16.93
2016-03-22T10:15:59.858Z,16.94
2016-03-22T10:16:59.877Z,16.97
2016-03-22T10:17:59.941Z,17.02
2016-03-22T10:18:59.257Z,17.02
2016-03-22T10:20:00.041Z,16.94
2016-03-22T10:21:00.105Z,17.04
2016-03-22T10:22:00.155Z,17.01
2016-03-22T10:23:00.205Z,16.97
2016-03-22T10:24:00.238Z,16.99
2016-03-22T10:25:00.304Z,16.96
2016-03-22T10:26:00.604Z,17.06
2016-03-22T10:27:00.419Z,16.96
2016-03-22T10:28:00.452Z,16.94
2016-03-22T10:29:00.502Z,16.97
2016-03-22T10:30:00.583Z,16.96
2016-03-22T10:31:00.617Z,17.01
2016-03-22T10:32:00.495Z,17.02
2016-03-22T10:33:00.748Z,17.04
2016-03-22T10:34:00.765Z,17.04
2016-03-22T10:35:00.815Z,16.97
2016-03-22T10:36:00.881Z,16.97
2016-03-22T10:37:00.915Z,17.04
2016-03-22T10:38:00.995Z,17.02
2016-03-22T10:39:01.029Z,16.99
2016-03-22T10:40:01.048Z,17.02
2016-03-22T10:41:01.144Z,16.97
2016-03-22T10:42:01.177Z,17.05
2016-03-22T10:43:01.196Z,17.01
2016-03-22T10:44:01.245Z,16.97
2016-03-22T10:45:01.327Z,16.94
2016-03-22T10:46:01.361Z,17.01
2016-03-22T10:47:01.441Z,17.02
2016-03-22T10:48:01.491Z,17.05
2016-03-22T10:49:01.525Z,17.02
2016-03-22T10:50:01.591Z,17.02
2016-03-22T10:51:01.624Z,16.96
2016-03-22T10:52:01.688Z,17.01
2016-03-22T10:53:01.754Z,17.04
2016-03-22T10:54:01.757Z,16.94
2016-03-22T10:55:01.822Z,16.97
2016-03-22T10:56:01.732Z,16.96
2016-03-22T10:57:01.905Z,17.04
2016-03-22T10:58:01.955Z,16.96
2016-03-22T10:59:02.035Z,16.89
2016-03-22T11:00:02.055Z,17.05
2016-03-22T11:01:02.104Z,16.97
2016-03-22T11:02:02.200Z,16.97
2016-03-22T11:03:02.251Z,16.96
2016-03-22T11:04:02.297Z,16.99
2016-03-22T11:05:02.310Z,16.94
2016-03-22T11:06:02.337Z,16.97
2016-03-22T11:07:02.427Z,17.04
2016-03-22T11:08:02.284Z,16.97
2016-03-22T11:09:02.500Z,17.02
2016-03-22T11:10:02.563Z,16.97
2016-03-22T11:11:02.595Z,17.06
2016-03-22T11:12:02.642Z,17.05
2016-03-22T11:13:02.705Z,17.04
2016-03-22T11:14:02.768Z,17.04
2016-03-22T11:15:02.786Z,16.93
2016-03-22T11:16:02.835Z,16.99
2016-03-22T11:17:02.899Z,17.08
2016-03-22T11:18:02.963Z,17.05
2016-03-22T11:19:02.998Z,16.96
2016-03-22T11:20:03.045Z,16.96
2016-03-22T11:21:03.110Z,17.04
2016-03-22T11:22:03.175Z,16.96
2016-03-22T11:23:03.193Z,16.94
2016-03-22T11:24:03.227Z,17.01
2016-03-22T11:25:03.293Z,17.04
2016-03-22T11:26:03.373Z,17.06
2016-03-22T11:27:03.392Z,16.96
2016-03-22T11:28:03.473Z,17.02
2016-03-22T11:29:03.490Z,17.06
2016-03-22T11:30:03.540Z,17.01
2016-03-22T11:31:03.589Z,17.05
2016-03-22T11:32:03.671Z,17.09
2016-03-22T11:33:03.720Z,16.94
2016-03-22T11:34:03.739Z,16.97
2016-03-22T11:35:03.819Z,17.01
2016-03-22T11:36:03.884Z,17.01
2016-03-22T11:37:03.903Z,16.99
2016-03-22T11:38:03.937Z,17.12
2016-03-22T11:39:04.033Z,17.08
2016-03-22T11:40:04.035Z,16.99
2016-03-22T11:41:04.101Z,17.01
2016-03-22T11:42:03.994Z,16.99
2016-03-22T11:43:04.231Z,17.02
2016-03-22T11:44:04.250Z,16.97
2016-03-22T11:45:04.315Z,16.99
2016-03-22T11:46:04.380Z,17.04
2016-03-22T11:47:04.399Z,17.04
2016-03-22T11:48:04.463Z,17.04
2016-03-22T11:49:04.513Z,17.05
2016-03-22T11:50:04.546Z,16.99
2016-03-22T11:51:04.597Z,17.09
2016-03-22T11:52:04.677Z,17.02
2016-03-22T11:53:04.727Z,17.06
2016-03-22T11:54:04.776Z,17.11
2016-03-22T11:55:04.842Z,17.08
2016-03-22T11:56:04.876Z,17.12
2016-03-22T11:57:04.941Z,17.09
2016-03-22T11:58:04.943Z,17.06
2016-03-22T11:59:05.040Z,17.14
2016-03-22T12:00:05.090Z,17.12
2016-03-22T12:01:05.108Z,17.09
2016-03-22T12:02:05.157Z,17.11
2016-03-22T12:03:05.223Z,17.12
2016-03-22T12:04:05.256Z,17.15
2016-03-22T12:05:05.306Z,17.08
2016-03-22T12:06:05.387Z,17.14
2016-03-22T12:07:05.405Z,17.12
2016-03-22T12:08:05.470Z,17.09
2016-03-22T12:09:05.519Z,17.12
2016-03-22T12:10:04.804Z,17.12
2016-03-22T12:11:05.635Z,17.04
2016-03-22T12:12:05.669Z,17.08
2016-03-22T12:13:05.719Z,17.09
2016-03-22T12:14:05.768Z,17.01
2016-03-22T12:15:05.833Z,17.02
2016-03-22T12:16:05.867Z,17.12
2016-03-22T12:17:05.963Z,17.11
2016-03-22T12:18:05.982Z,17.12
2016-03-22T12:19:06.015Z,17.12
2016-03-22T12:20:06.097Z,17.11
2016-03-22T12:21:06.115Z,17.12
2016-03-22T12:22:06.180Z,17.09
2016-03-22T12:23:06.246Z,17.09
2016-03-22T12:24:06.263Z,17.02
2016-03-22T12:25:06.344Z,16.94
2016-03-22T12:26:06.394Z,16.97
2016-03-22T12:27:06.412Z,17.08
2016-03-22T12:28:06.492Z,17.11
2016-03-22T12:29:06.542Z,17.08
2016-03-22T12:30:06.592Z,17.09
2016-03-22T12:31:06.626Z,17.09
2016-03-22T12:32:06.692Z,17.12
2016-03-22T12:33:06.725Z,17.06
2016-03-22T12:34:06.790Z,17.08
2016-03-22T12:35:06.839Z,17.09
2016-03-22T12:36:06.890Z,17.02
2016-03-22T12:37:06.939Z,17.09
2016-03-22T12:38:06.988Z,17.11
2016-03-22T12:39:07.023Z,17.12
2016-03-22T12:40:07.103Z,17.14
2016-03-22T12:41:07.137Z,17.12
2016-03-22T12:42:07.187Z,17.11
2016-03-22T12:43:07.252Z,17.12
2016-03-22T12:44:07.302Z,17.12
2016-03-22T12:45:07.335Z,17.11
2016-03-22T12:46:07.417Z,17.05
2016-03-22T12:47:07.450Z,17.14
2016-03-22T12:48:07.516Z,17.12
2016-03-22T12:49:07.550Z,17.11
2016-03-22T12:50:07.599Z,17.12
2016-03-22T12:51:07.649Z,17.11
2016-03-22T12:52:07.699Z,17.14
2016-03-22T12:53:07.749Z,17.14
2016-03-22T12:54:07.797Z,17.06